sensor_id;sensor_type;location;lat;lon;timestamp;pressure;altitude;pressure_sealevel;temperature;humidity
55932;BME280;41837;55.700;37.984;2022-07-05T00:00:24;99906.72;;;15.69;100.00
55932;BME280;41837;55.700;37.984;2022-07-05T00:02:50;99921.13;;;15.77;100.00
55932;BME280;41837;55.700;37.984;2022-07-05T00:05:17;99921.88;;;15.79;100.00
55932;BME280;41837;55.700;37.984;2022-07-05T00:07:43;99926.59;;;15.60;100.00
55932;BME280;41837;55.700;37.984;2022-07-05T00:10:10;99932.88;;;15.57;100.00
55932;BME280;41837;55.700;37.984;2022-07-05T00:12:37;99925.88;;;15.56;100.00
55932;BME280;41837;55.700;37.984;2022-07-05T00:15:03;99927.31;;;15.47;100.00
55932;BME280;41837;55.700;37.984;2022-07-05T00:17:30;99931.06;;;15.43;100.00
55932;BME280;41837;55.700;37.984;2022-07-05T00:19:56;99931.72;;;15.33;100.00
55932;BME280;41837;55.700;37.984;2022-07-05T00:22:22;99934.63;;;15.28;100.00
55932;BME280;41837;55.700;37.984;2022-07-05T00:24:48;99941.56;;;15.29;100.00
55932;BME280;41837;55.700;37.984;2022-07-05T00:27:16;99939.44;;;15.36;100.00
55932;BME280;41837;55.700;37.984;2022-07-05T00:29:43;99938.81;;;15.46;100.00
55932;BME280;41837;55.700;37.984;2022-07-05T00:32:10;99934.63;;;15.42;100.00
55932;BME280;41837;55.700;37.984;2022-07-05T00:34:36;99950.75;;;15.38;100.00
55932;BME280;41837;55.700;37.984;2022-07-05T00:37:02;99946.22;;;15.40;100.00
55932;BME280;41837;55.700;37.984;2022-07-05T00:39:29;99951.75;;;15.35;100.00
55932;BME280;41837;55.700;37.984;2022-07-05T00:41:55;99947.06;;;15.26;100.00
55932;BME280;41837;55.700;37.984;2022-07-05T00:44:37;99949.13;;;15.35;100.00
55932;BME280;41837;55.700;37.984;2022-07-05T00:47:07;99936.53;;;15.26;100.00
55932;BME280;41837;55.700;37.984;2022-07-05T00:49:35;99953.25;;;15.25;100.00
55932;BME280;41837;55.700;37.984;2022-07-05T00:52:04;99951.28;;;15.28;100.00
55932;BME280;41837;55.700;37.984;2022-07-05T00:54:33;99945.91;;;15.30;100.00
55932;BME280;41837;55.700;37.984;2022-07-05T00:57:01;99951.00;;;15.33;100.00
55932;BME280;41837;55.700;37.984;2022-07-05T00:59:29;99947.63;;;15.31;100.00
55932;BME280;41837;55.700;37.984;2022-07-05T01:01:56;99943.84;;;15.35;100.00
55932;BME280;41837;55.700;37.984;2022-07-05T01:04:23;99937.94;;;15.32;100.00
55932;BME280;41837;55.700;37.984;2022-07-05T01:06:52;99947.25;;;15.37;100.00
55932;BME280;41837;55.700;37.984;2022-07-05T01:09:19;99950.84;;;15.36;100.00
55932;BME280;41837;55.700;37.984;2022-07-05T01:11:47;99949.34;;;15.46;100.00
55932;BME280;41837;55.700;37.984;2022-07-05T01:14:17;99953.50;;;15.65;100.00
55932;BME280;41837;55.700;37.984;2022-07-05T01:16:44;99958.59;;;15.97;100.00
55932;BME280;41837;55.700;37.984;2022-07-05T01:19:11;99950.03;;;16.08;100.00
55932;BME280;41837;55.700;37.984;2022-07-05T01:21:43;99956.00;;;16.38;100.00
55932;BME280;41837;55.700;37.984;2022-07-05T01:24:16;99953.97;;;16.56;100.00
55932;BME280;41837;55.700;37.984;2022-07-05T01:26:48;99949.44;;;16.86;100.00
55932;BME280;41837;55.700;37.984;2022-07-05T01:29:16;99947.19;;;17.32;100.00
55932;BME280;41837;55.700;37.984;2022-07-05T01:31:43;99954.84;;;17.50;100.00
55932;BME280;41837;55.700;37.984;2022-07-05T01:34:10;99941.81;;;17.73;100.00
55932;BME280;41837;55.700;37.984;2022-07-05T01:36:37;99950.94;;;17.94;100.00
55932;BME280;41837;55.700;37.984;2022-07-05T01:39:07;99957.88;;;17.95;100.00
55932;BME280;41837;55.700;37.984;2022-07-05T01:41:34;99951.44;;;17.99;100.00
55932;BME280;41837;55.700;37.984;2022-07-05T01:44:01;99957.09;;;18.32;100.00
55932;BME280;41837;55.700;37.984;2022-07-05T01:46:31;99950.56;;;18.73;100.00
55932;BME280;41837;55.700;37.984;2022-07-05T01:49:12;99934.44;;;19.00;98.85
55932;BME280;41837;55.700;37.984;2022-07-05T01:51:59;99949.81;;;19.30;97.15
55932;BME280;41837;55.700;37.984;2022-07-05T01:54:28;99940.66;;;19.34;95.81
55932;BME280;41837;55.700;37.984;2022-07-05T01:56:55;99945.66;;;19.50;95.16
55932;BME280;41837;55.700;37.984;2022-07-05T01:59:22;99931.44;;;19.74;93.78
55932;BME280;41837;55.700;37.984;2022-07-05T02:01:48;99930.38;;;19.77;94.92
55932;BME280;41837;55.700;37.984;2022-07-05T02:04:16;99944.28;;;19.45;97.07
55932;BME280;41837;55.700;37.984;2022-07-05T02:06:44;99949.38;;;19.70;95.99
55932;BME280;41837;55.700;37.984;2022-07-05T02:09:12;99943.19;;;20.49;89.08
55932;BME280;41837;55.700;37.984;2022-07-05T02:11:38;99944.56;;;21.08;85.58
55932;BME280;41837;55.700;37.984;2022-07-05T02:14:06;99939.75;;;21.23;84.15
55932;BME280;41837;55.700;37.984;2022-07-05T02:16:39;99936.44;;;21.31;82.79
55932;BME280;41837;55.700;37.984;2022-07-05T02:19:06;99938.31;;;21.40;83.00
55932;BME280;41837;55.700;37.984;2022-07-05T02:21:36;99942.22;;;21.57;82.12
55932;BME280;41837;55.700;37.984;2022-07-05T02:24:08;99934.88;;;22.11;77.05
55932;BME280;41837;55.700;37.984;2022-07-05T02:26:40;99936.78;;;21.99;77.25
55932;BME280;41837;55.700;37.984;2022-07-05T02:29:07;99935.75;;;21.50;79.83
55932;BME280;41837;55.700;37.984;2022-07-05T02:31:37;99941.38;;;21.35;79.71
55932;BME280;41837;55.700;37.984;2022-07-05T02:34:05;99929.66;;;21.17;81.13
55932;BME280;41837;55.700;37.984;2022-07-05T02:36:31;99929.66;;;22.00;77.25
55932;BME280;41837;55.700;37.984;2022-07-05T02:38:59;99940.53;;;21.87;75.95
55932;BME280;41837;55.700;37.984;2022-07-05T02:41:25;99939.75;;;22.46;72.52
55932;BME280;41837;55.700;37.984;2022-07-05T02:43:52;99942.72;;;22.92;70.74
55932;BME280;41837;55.700;37.984;2022-07-05T02:46:23;99943.81;;;23.28;70.12
55932;BME280;41837;55.700;37.984;2022-07-05T02:48:52;99938.34;;;23.77;66.94
55932;BME280;41837;55.700;37.984;2022-07-05T02:51:19;99940.81;;;23.51;67.32
55932;BME280;41837;55.700;37.984;2022-07-05T02:53:49;99946.94;;;23.14;68.20
55932;BME280;41837;55.700;37.984;2022-07-05T02:56:17;99945.34;;;23.41;67.58
55932;BME280;41837;55.700;37.984;2022-07-05T02:58:44;99937.13;;;23.62;67.76
55932;BME280;41837;55.700;37.984;2022-07-05T03:01:12;99942.22;;;25.02;61.66
55932;BME280;41837;55.700;37.984;2022-07-05T03:03:39;99943.31;;;24.55;61.94
55932;BME280;41837;55.700;37.984;2022-07-05T03:06:06;99948.84;;;24.44;63.53
55932;BME280;41837;55.700;37.984;2022-07-05T03:08:35;99942.69;;;23.78;65.29
55932;BME280;41837;55.700;37.984;2022-07-05T03:11:02;99940.81;;;24.26;64.60
55932;BME280;41837;55.700;37.984;2022-07-05T03:13:29;99941.47;;;24.28;63.32
55932;BME280;41837;55.700;37.984;2022-07-05T03:15:56;99946.13;;;25.26;60.37
55932;BME280;41837;55.700;37.984;2022-07-05T03:18:24;99947.97;;;25.52;59.88
55932;BME280;41837;55.700;37.984;2022-07-05T03:20:50;99949.63;;;25.08;61.58
55932;BME280;41837;55.700;37.984;2022-07-05T03:23:19;99940.00;;;24.80;61.16
55932;BME280;41837;55.700;37.984;2022-07-05T03:25:51;99943.50;;;25.34;59.83
55932;BME280;41837;55.700;37.984;2022-07-05T03:28:18;99950.31;;;25.28;59.72
55932;BME280;41837;55.700;37.984;2022-07-05T03:30:46;99948.25;;;24.86;63.45
55932;BME280;41837;55.700;37.984;2022-07-05T03:33:13;99946.34;;;25.14;62.32
55932;BME280;41837;55.700;37.984;2022-07-05T03:35:44;99952.31;;;25.26;61.64
55932;BME280;41837;55.700;37.984;2022-07-05T03:38:12;99944.72;;;26.51;56.36
55932;BME280;41837;55.700;37.984;2022-07-05T03:40:38;99943.34;;;25.62;57.58
55932;BME280;41837;55.700;37.984;2022-07-05T03:43:06;99952.03;;;25.64;58.22
55932;BME280;41837;55.700;37.984;2022-07-05T03:45:36;99958.78;;;26.02;56.97
55932;BME280;41837;55.700;37.984;2022-07-05T03:48:03;99955.22;;;25.94;57.46
55932;BME280;41837;55.700;37.984;2022-07-05T03:50:31;99956.13;;;25.76;57.38
55932;BME280;41837;55.700;37.984;2022-07-05T03:52:58;99960.06;;;25.64;57.17
55932;BME280;41837;55.700;37.984;2022-07-05T03:55:26;99967.06;;;26.25;55.73
55932;BME280;41837;55.700;37.984;2022-07-05T03:57:54;99965.25;;;26.26;54.75
55932;BME280;41837;55.700;37.984;2022-07-05T04:00:22;99956.16;;;26.70;54.07
55932;BME280;41837;55.700;37.984;2022-07-05T04:02:57;99966.03;;;26.69;55.00
55932;BME280;41837;55.700;37.984;2022-07-05T04:05:24;99961.13;;;27.71;51.42
55932;BME280;41837;55.700;37.984;2022-07-05T04:07:52;99962.16;;;27.62;51.56
55932;BME280;41837;55.700;37.984;2022-07-05T04:10:24;99958.06;;;27.91;50.14
55932;BME280;41837;55.700;37.984;2022-07-05T04:12:52;99953.19;;;27.95;50.50
55932;BME280;41837;55.700;37.984;2022-07-05T04:15:18;99949.94;;;28.39;48.66
55932;BME280;41837;55.700;37.984;2022-07-05T04:17:50;99954.50;;;28.38;48.92
55932;BME280;41837;55.700;37.984;2022-07-05T04:20:18;99947.31;;;27.99;48.76
55932;BME280;41837;55.700;37.984;2022-07-05T04:22:44;99949.63;;;28.88;47.91
55932;BME280;41837;55.700;37.984;2022-07-05T04:25:14;99963.97;;;27.78;48.90
55932;BME280;41837;55.700;37.984;2022-07-05T04:27:50;99963.59;;;28.29;47.97
55932;BME280;41837;55.700;37.984;2022-07-05T04:30:19;99962.31;;;28.25;47.10
55932;BME280;41837;55.700;37.984;2022-07-05T04:32:50;99965.72;;;28.96;46.89
55932;BME280;41837;55.700;37.984;2022-07-05T04:35:17;99969.50;;;28.64;46.05
55932;BME280;41837;55.700;37.984;2022-07-05T04:37:44;99962.44;;;29.47;44.21
55932;BME280;41837;55.700;37.984;2022-07-05T04:40:13;99967.19;;;29.60;45.05
55932;BME280;41837;55.700;37.984;2022-07-05T04:42:41;99965.50;;;28.60;44.19
55932;BME280;41837;55.700;37.984;2022-07-05T04:45:10;99963.13;;;29.94;42.26
55932;BME280;41837;55.700;37.984;2022-07-05T04:47:37;99961.19;;;29.20;44.18
55932;BME280;41837;55.700;37.984;2022-07-05T04:50:06;99964.88;;;30.02;43.57
55932;BME280;41837;55.700;37.984;2022-07-05T04:52:33;99971.56;;;30.06;41.49
55932;BME280;41837;55.700;37.984;2022-07-05T04:55:01;99961.72;;;29.53;42.82
55932;BME280;41837;55.700;37.984;2022-07-05T04:57:37;99960.38;;;30.24;41.72
55932;BME280;41837;55.700;37.984;2022-07-05T05:00:06;99971.13;;;30.54;40.86
55932;BME280;41837;55.700;37.984;2022-07-05T05:02:32;99972.31;;;31.37;40.16
55932;BME280;41837;55.700;37.984;2022-07-05T05:05:00;99972.09;;;30.67;39.52
55932;BME280;41837;55.700;37.984;2022-07-05T05:07:27;99950.41;;;31.26;38.59
55932;BME280;41837;55.700;37.984;2022-07-05T05:09:54;99964.16;;;30.81;39.64
55932;BME280;41837;55.700;37.984;2022-07-05T05:12:20;99959.38;;;31.54;38.84
55932;BME280;41837;55.700;37.984;2022-07-05T05:14:47;99959.47;;;32.09;37.60
55932;BME280;41837;55.700;37.984;2022-07-05T05:17:13;99956.84;;;30.96;38.19
55932;BME280;41837;55.700;37.984;2022-07-05T05:19:42;99944.84;;;31.55;39.06
55932;BME280;41837;55.700;37.984;2022-07-05T05:22:10;99950.81;;;31.79;37.60
55932;BME280;41837;55.700;37.984;2022-07-05T05:24:38;99953.59;;;30.64;38.50
55932;BME280;41837;55.700;37.984;2022-07-05T05:27:04;99956.00;;;31.24;38.16
55932;BME280;41837;55.700;37.984;2022-07-05T05:29:31;99956.09;;;30.66;38.18
55932;BME280;41837;55.700;37.984;2022-07-05T05:31:58;99953.69;;;31.49;38.17
55932;BME280;41837;55.700;37.984;2022-07-05T05:34:25;99958.44;;;31.40;38.34
55932;BME280;41837;55.700;37.984;2022-07-05T05:36:51;99949.94;;;31.78;37.73
55932;BME280;41837;55.700;37.984;2022-07-05T05:39:18;99944.22;;;31.60;38.25
55932;BME280;41837;55.700;37.984;2022-07-05T05:41:44;99949.59;;;31.53;37.42
55932;BME280;41837;55.700;37.984;2022-07-05T05:44:11;99943.00;;;31.34;37.80
55932;BME280;41837;55.700;37.984;2022-07-05T05:46:37;99932.78;;;31.58;37.55
55932;BME280;41837;55.700;37.984;2022-07-05T05:49:04;99948.97;;;30.58;37.82
55932;BME280;41837;55.700;37.984;2022-07-05T05:51:30;99941.31;;;31.96;36.05
55932;BME280;41837;55.700;37.984;2022-07-05T05:53:56;99938.47;;;33.00;35.21
55932;BME280;41837;55.700;37.984;2022-07-05T05:56:23;99941.91;;;32.33;35.16
55932;BME280;41837;55.700;37.984;2022-07-05T05:58:49;99931.81;;;33.36;34.06
55932;BME280;41837;55.700;37.984;2022-07-05T06:01:16;99940.34;;;33.19;34.62
55932;BME280;41837;55.700;37.984;2022-07-05T06:03:44;99942.41;;;32.70;35.43
55932;BME280;41837;55.700;37.984;2022-07-05T06:06:10;99942.19;;;32.72;34.25
55932;BME280;41837;55.700;37.984;2022-07-05T06:08:36;99936.50;;;32.53;34.13
55932;BME280;41837;55.700;37.984;2022-07-05T06:11:06;99935.75;;;33.33;34.09
55932;BME280;41837;55.700;37.984;2022-07-05T06:13:32;99932.81;;;32.68;34.82
55932;BME280;41837;55.700;37.984;2022-07-05T06:15:58;99929.88;;;32.56;34.73
55932;BME280;41837;55.700;37.984;2022-07-05T06:18:25;99932.16;;;32.04;34.11
55932;BME280;41837;55.700;37.984;2022-07-05T06:20:51;99940.41;;;31.83;34.87
55932;BME280;41837;55.700;37.984;2022-07-05T06:23:18;99932.41;;;31.04;35.12
55932;BME280;41837;55.700;37.984;2022-07-05T06:25:44;99932.53;;;31.88;35.48
55932;BME280;41837;55.700;37.984;2022-07-05T06:28:11;99937.28;;;31.86;34.72
55932;BME280;41837;55.700;37.984;2022-07-05T06:30:37;99936.09;;;31.53;35.33
55932;BME280;41837;55.700;37.984;2022-07-05T06:33:06;99937.13;;;31.94;35.44
55932;BME280;41837;55.700;37.984;2022-07-05T06:35:32;99937.59;;;31.34;35.34
55932;BME280;41837;55.700;37.984;2022-07-05T06:38:05;99937.44;;;31.71;34.80
55932;BME280;41837;55.700;37.984;2022-07-05T06:40:34;99934.88;;;31.56;34.78
55932;BME280;41837;55.700;37.984;2022-07-05T06:43:06;99935.91;;;31.96;33.79
55932;BME280;41837;55.700;37.984;2022-07-05T06:45:59;99936.06;;;30.97;35.39
55932;BME280;41837;55.700;37.984;2022-07-05T06:48:26;99924.84;;;32.46;33.26
55932;BME280;41837;55.700;37.984;2022-07-05T06:50:52;99925.28;;;31.53;35.39
55932;BME280;41837;55.700;37.984;2022-07-05T06:53:18;99920.53;;;33.12;33.69
55932;BME280;41837;55.700;37.984;2022-07-05T06:55:45;99914.50;;;33.03;34.06
55932;BME280;41837;55.700;37.984;2022-07-05T06:58:12;99920.81;;;31.74;34.53
55932;BME280;41837;55.700;37.984;2022-07-05T07:00:42;99920.81;;;31.67;34.29
55932;BME280;41837;55.700;37.984;2022-07-05T07:03:09;99927.25;;;31.10;35.37
55932;BME280;41837;55.700;37.984;2022-07-05T07:05:36;99917.72;;;31.42;35.45
55932;BME280;41837;55.700;37.984;2022-07-05T07:08:03;99921.38;;;31.63;35.49
55932;BME280;41837;55.700;37.984;2022-07-05T07:10:49;99929.34;;;31.14;35.61
55932;BME280;41837;55.700;37.984;2022-07-05T07:13:15;99914.56;;;30.88;37.27
55932;BME280;41837;55.700;37.984;2022-07-05T07:15:42;99913.13;;;30.64;36.49
55932;BME280;41837;55.700;37.984;2022-07-05T07:18:08;99913.38;;;30.69;36.34
55932;BME280;41837;55.700;37.984;2022-07-05T07:20:35;99897.84;;;31.98;35.12
55932;BME280;41837;55.700;37.984;2022-07-05T07:23:01;99912.50;;;30.91;35.98
55932;BME280;41837;55.700;37.984;2022-07-05T07:25:28;99908.88;;;30.77;36.25
55932;BME280;41837;55.700;37.984;2022-07-05T07:27:55;99910.66;;;30.48;37.49
55932;BME280;41837;55.700;37.984;2022-07-05T07:30:28;99911.72;;;30.47;36.97
55932;BME280;41837;55.700;37.984;2022-07-05T07:32:55;99918.72;;;30.84;36.47
55932;BME280;41837;55.700;37.984;2022-07-05T07:35:21;99905.00;;;31.36;35.21
55932;BME280;41837;55.700;37.984;2022-07-05T07:37:48;99904.81;;;31.72;35.06
55932;BME280;41837;55.700;37.984;2022-07-05T07:40:14;99905.34;;;31.26;35.95
55932;BME280;41837;55.700;37.984;2022-07-05T07:42:41;99905.84;;;31.08;35.91
55932;BME280;41837;55.700;37.984;2022-07-05T07:45:08;99909.00;;;31.82;35.20
55932;BME280;41837;55.700;37.984;2022-07-05T07:47:35;99908.16;;;31.74;34.91
55932;BME280;41837;55.700;37.984;2022-07-05T07:50:03;99894.63;;;32.23;34.32
55932;BME280;41837;55.700;37.984;2022-07-05T07:52:30;99900.69;;;31.48;36.56
55932;BME280;41837;55.700;37.984;2022-07-05T07:54:59;99902.13;;;31.72;35.43
55932;BME280;41837;55.700;37.984;2022-07-05T07:57:29;99892.66;;;32.85;34.95
55932;BME280;41837;55.700;37.984;2022-07-05T07:59:56;99901.38;;;33.07;33.77
55932;BME280;41837;55.700;37.984;2022-07-05T08:02:23;99905.47;;;31.46;35.33
55932;BME280;41837;55.700;37.984;2022-07-05T08:04:50;99903.59;;;32.23;35.17
55932;BME280;41837;55.700;37.984;2022-07-05T08:07:17;99898.81;;;32.32;35.53
55932;BME280;41837;55.700;37.984;2022-07-05T08:09:45;99887.66;;;32.95;33.68
55932;BME280;41837;55.700;37.984;2022-07-05T08:12:13;99906.78;;;30.72;36.26
55932;BME280;41837;55.700;37.984;2022-07-05T08:14:39;99896.09;;;31.42;35.93
55932;BME280;41837;55.700;37.984;2022-07-05T08:17:05;99897.25;;;30.55;36.89
55932;BME280;41837;55.700;37.984;2022-07-05T08:19:35;99891.66;;;30.56;36.83
55932;BME280;41837;55.700;37.984;2022-07-05T08:22:21;99895.97;;;30.94;36.79
55932;BME280;41837;55.700;37.984;2022-07-05T08:24:47;99887.19;;;31.83;36.34
55932;BME280;41837;55.700;37.984;2022-07-05T08:27:15;99886.84;;;31.58;35.70
55932;BME280;41837;55.700;37.984;2022-07-05T08:29:42;99901.44;;;30.57;36.47
55932;BME280;41837;55.700;37.984;2022-07-05T08:32:09;99886.16;;;30.06;37.04
55932;BME280;41837;55.700;37.984;2022-07-05T08:34:36;99892.97;;;29.57;37.30
55932;BME280;41837;55.700;37.984;2022-07-05T08:37:03;99896.75;;;30.08;37.00
55932;BME280;41837;55.700;37.984;2022-07-05T08:39:29;99885.72;;;31.46;35.38
55932;BME280;41837;55.700;37.984;2022-07-05T08:41:57;99885.66;;;32.15;34.14
55932;BME280;41837;55.700;37.984;2022-07-05T08:44:29;99877.16;;;32.25;36.01
55932;BME280;41837;55.700;37.984;2022-07-05T08:47:02;99869.53;;;31.46;36.13
55932;BME280;41837;55.700;37.984;2022-07-05T08:49:30;99888.19;;;30.41;37.82
55932;BME280;41837;55.700;37.984;2022-07-05T08:52:02;99879.72;;;30.44;37.43
55932;BME280;41837;55.700;37.984;2022-07-05T08:54:30;99873.03;;;30.40;37.88
55932;BME280;41837;55.700;37.984;2022-07-05T08:56:57;99874.56;;;29.91;38.33
55932;BME280;41837;55.700;37.984;2022-07-05T08:59:24;99880.97;;;29.75;38.54
55932;BME280;41837;55.700;37.984;2022-07-05T09:01:50;99886.38;;;30.48;38.02
55932;BME280;41837;55.700;37.984;2022-07-05T09:04:19;99880.06;;;31.75;36.56
55932;BME280;41837;55.700;37.984;2022-07-05T09:06:49;99877.69;;;31.24;36.23
55932;BME280;41837;55.700;37.984;2022-07-05T09:09:18;99875.84;;;30.53;36.85
55932;BME280;41837;55.700;37.984;2022-07-05T09:11:45;99874.22;;;30.52;37.93
55932;BME280;41837;55.700;37.984;2022-07-05T09:14:23;99868.78;;;30.74;37.13
55932;BME280;41837;55.700;37.984;2022-07-05T09:16:51;99875.47;;;30.99;37.91
55932;BME280;41837;55.700;37.984;2022-07-05T09:19:18;99874.72;;;30.62;37.59
55932;BME280;41837;55.700;37.984;2022-07-05T09:21:45;99855.38;;;30.37;38.08
55932;BME280;41837;55.700;37.984;2022-07-05T09:24:12;99861.34;;;29.07;39.64
55932;BME280;41837;55.700;37.984;2022-07-05T09:26:45;99853.06;;;28.93;40.12
55932;BME280;41837;55.700;37.984;2022-07-05T09:29:19;99857.84;;;29.36;39.61
55932;BME280;41837;55.700;37.984;2022-07-05T09:31:48;99859.41;;;29.75;38.94
55932;BME280;41837;55.700;37.984;2022-07-05T09:34:17;99842.72;;;29.80;38.57
55932;BME280;41837;55.700;37.984;2022-07-05T09:36:56;99852.34;;;30.25;37.84
55932;BME280;41837;55.700;37.984;2022-07-05T09:42:28;99848.78;;;30.90;39.38
55932;BME280;41837;55.700;37.984;2022-07-05T09:44:56;99846.22;;;31.45;37.32
55932;BME280;41837;55.700;37.984;2022-07-05T09:47:26;99842.50;;;30.82;38.32
55932;BME280;41837;55.700;37.984;2022-07-05T09:50:02;99843.81;;;31.56;37.53
55932;BME280;41837;55.700;37.984;2022-07-05T09:52:35;99841.09;;;31.15;37.84
55932;BME280;41837;55.700;37.984;2022-07-05T09:55:05;99842.44;;;31.80;36.57
55932;BME280;41837;55.700;37.984;2022-07-05T09:57:35;99840.50;;;32.09;36.06
55932;BME280;41837;55.700;37.984;2022-07-05T10:00:24;99839.78;;;31.87;36.35
55932;BME280;41837;55.700;37.984;2022-07-05T10:02:54;99830.44;;;31.48;36.28
55932;BME280;41837;55.700;37.984;2022-07-05T10:05:30;99829.25;;;31.51;36.27
55932;BME280;41837;55.700;37.984;2022-07-05T10:07:58;99824.94;;;31.21;35.83
55932;BME280;41837;55.700;37.984;2022-07-05T10:10:30;99820.94;;;31.52;36.54
55932;BME280;41837;55.700;37.984;2022-07-05T10:12:58;99814.13;;;31.21;36.06
55932;BME280;41837;55.700;37.984;2022-07-05T10:15:28;99820.06;;;30.82;36.66
55932;BME280;41837;55.700;37.984;2022-07-05T10:20:59;99818.75;;;30.49;37.56
55932;BME280;41837;55.700;37.984;2022-07-05T10:23:27;99813.78;;;30.75;37.09
55932;BME280;41837;55.700;37.984;2022-07-05T10:25:56;99803.06;;;31.10;37.32
55932;BME280;41837;55.700;37.984;2022-07-05T10:28:23;99803.28;;;31.56;36.88
55932;BME280;41837;55.700;37.984;2022-07-05T10:30:50;99799.19;;;31.80;36.81
55932;BME280;41837;55.700;37.984;2022-07-05T10:33:19;99790.09;;;31.95;35.80
55932;BME280;41837;55.700;37.984;2022-07-05T10:35:51;99789.34;;;32.88;34.83
55932;BME280;41837;55.700;37.984;2022-07-05T10:38:18;99783.06;;;31.46;36.15
55932;BME280;41837;55.700;37.984;2022-07-05T10:40:48;99792.19;;;31.93;35.74
55932;BME280;41837;55.700;37.984;2022-07-05T10:43:16;99781.53;;;31.23;36.16
55932;BME280;41837;55.700;37.984;2022-07-05T10:45:50;99774.50;;;31.90;35.91
55932;BME280;41837;55.700;37.984;2022-07-05T10:48:18;99790.50;;;31.37;36.19
55932;BME280;41837;55.700;37.984;2022-07-05T10:50:49;99790.47;;;30.39;37.90
55932;BME280;41837;55.700;37.984;2022-07-05T10:53:18;99785.31;;;31.35;36.83
55932;BME280;41837;55.700;37.984;2022-07-05T10:58:38;99778.53;;;31.53;36.64
55932;BME280;41837;55.700;37.984;2022-07-05T11:03:49;99795.28;;;30.72;36.28
55932;BME280;41837;55.700;37.984;2022-07-05T11:11:38;99811.06;;;29.37;43.13
55932;BME280;41837;55.700;37.984;2022-07-05T11:20:01;99834.09;;;28.02;49.09
55932;BME280;41837;55.700;37.984;2022-07-05T11:22:30;99842.59;;;27.35;51.70
55932;BME280;41837;55.700;37.984;2022-07-05T11:24:57;99858.50;;;25.97;58.93
55932;BME280;41837;55.700;37.984;2022-07-05T11:27:23;99860.94;;;25.82;58.85
55932;BME280;41837;55.700;37.984;2022-07-05T11:29:54;99857.22;;;25.40;59.55
55932;BME280;41837;55.700;37.984;2022-07-05T11:32:35;99860.47;;;25.00;58.64
55932;BME280;41837;55.700;37.984;2022-07-05T11:35:19;99841.44;;;24.76;59.30
55932;BME280;41837;55.700;37.984;2022-07-05T11:38:04;99848.69;;;24.66;60.00
55932;BME280;41837;55.700;37.984;2022-07-05T11:40:33;99859.75;;;24.71;59.78
55932;BME280;41837;55.700;37.984;2022-07-05T11:43:01;99848.47;;;24.60;58.34
55932;BME280;41837;55.700;37.984;2022-07-05T11:45:29;99848.59;;;24.76;56.49
55932;BME280;41837;55.700;37.984;2022-07-05T11:47:56;99837.66;;;24.69;55.26
55932;BME280;41837;55.700;37.984;2022-07-05T11:50:32;99822.09;;;24.47;56.02
55932;BME280;41837;55.700;37.984;2022-07-05T11:53:02;99841.75;;;24.55;56.90
55932;BME280;41837;55.700;37.984;2022-07-05T11:55:31;99862.03;;;24.48;57.30
55932;BME280;41837;55.700;37.984;2022-07-05T11:57:58;99858.00;;;24.26;57.19
55932;BME280;41837;55.700;37.984;2022-07-05T12:00:28;99847.44;;;24.07;56.59
55932;BME280;41837;55.700;37.984;2022-07-05T12:02:56;99865.47;;;24.23;55.86
55932;BME280;41837;55.700;37.984;2022-07-05T12:05:23;99861.41;;;24.18;56.07
55932;BME280;41837;55.700;37.984;2022-07-05T12:07:55;99883.59;;;24.01;58.85
55932;BME280;41837;55.700;37.984;2022-07-05T12:10:22;99887.75;;;23.76;61.64
55932;BME280;41837;55.700;37.984;2022-07-05T12:13:08;99903.50;;;23.32;65.36
55932;BME280;41837;55.700;37.984;2022-07-05T12:15:35;99907.25;;;23.49;66.77
55932;BME280;41837;55.700;37.984;2022-07-05T12:18:04;99908.72;;;23.23;70.16
55932;BME280;41837;55.700;37.984;2022-07-05T12:20:34;99908.34;;;22.89;85.31
55932;BME280;41837;55.700;37.984;2022-07-05T12:23:01;62247.19;;;-144.81;100.00
55932;BME280;41837;55.700;37.984;2022-07-05T12:25:29;62247.19;;;-144.81;100.00
55932;BME280;41837;55.700;37.984;2022-07-05T12:27:58;62247.19;;;-144.81;100.00
55932;BME280;41837;55.700;37.984;2022-07-05T12:30:28;62247.19;;;-144.81;100.00
55932;BME280;41837;55.700;37.984;2022-07-05T12:33:03;62247.19;;;-144.81;100.00
55932;BME280;41837;55.700;37.984;2022-07-05T12:35:39;62247.19;;;-144.81;100.00
55932;BME280;41837;55.700;37.984;2022-07-05T12:40:38;62247.19;;;-144.81;100.00
55932;BME280;41837;55.700;37.984;2022-07-05T12:43:16;62247.19;;;-144.81;100.00
55932;BME280;41837;55.700;37.984;2022-07-05T12:45:59;62247.19;;;-144.81;100.00
55932;BME280;41837;55.700;37.984;2022-07-05T12:48:36;62247.19;;;-144.81;100.00
55932;BME280;41837;55.700;37.984;2022-07-05T12:51:03;62247.19;;;-144.81;100.00
55932;BME280;41837;55.700;37.984;2022-07-05T12:53:30;62247.19;;;-144.81;100.00
55932;BME280;41837;55.700;37.984;2022-07-05T12:56:15;62247.19;;;-144.81;100.00
55932;BME280;41837;55.700;37.984;2022-07-05T12:59:03;62247.19;;;-144.81;100.00
55932;BME280;41837;55.700;37.984;2022-07-05T13:01:31;62247.19;;;-144.81;100.00
55932;BME280;41837;55.700;37.984;2022-07-05T13:04:10;62247.19;;;-144.81;100.00
55932;BME280;41837;55.700;37.984;2022-07-05T13:07:02;62247.19;;;-144.81;100.00
55932;BME280;41837;55.700;37.984;2022-07-05T13:12:09;62247.19;;;-144.81;100.00
55932;BME280;41837;55.700;37.984;2022-07-05T13:14:41;62247.19;;;-144.81;100.00
55932;BME280;41837;55.700;37.984;2022-07-05T13:17:10;62247.19;;;-144.81;100.00
55932;BME280;41837;55.700;37.984;2022-07-05T13:19:39;62247.19;;;-144.81;100.00
55932;BME280;41837;55.700;37.984;2022-07-05T13:22:07;62247.19;;;-144.81;100.00